Huvudsida
METAR-TAF:

METAR-TAF

Flygplatser :

Messina, Italien

latitud: 38-12N, longitud: 015-33E, höjd: 59 m

Aktuellt väderrapport

Denna rapport gjordes för 1 timme och 0 minuter sedan, klockan 23:55 UTC
Vind 4 kt från nord
Temperatur 27°C
Fuktighet 89%
Tryck 1015 hPa
Sikt 10 km eller mer
Inga moln under 1 500 m eller inga cumulonimbus

METAR: LICF 242355Z 35004KT CAVOK 27/25 Q1015 RMK SKC QUK / QUL / VIS MAR 12 KM MON INVIS NC VIS MIN 9999

Tid: 02:55 (00:55 UTC)


TAF: saknas

Aktuella väderrapporter och prognoser från 4000 flygplatser (METAR- och TAF-rapporter).

De tillgängliga stationerna syns som gula och röda prickar på kartan.

För musen över prickarna för att se namnen på stationerna.

Klicka sedan för att få väderrapporter och prognoser.

För att ändra kartan: Klicka på de gröna knapparna med ett svart kors på för att zooma in; den gröna knappen med ett streck på för att zooma ut; eller på de gröna pilarna för angränsande kartor.


METAR-TAF: